createdAt,value
2022-11-13T00:02:27.321Z,59.11
2022-11-13T00:05:13.290Z,59.45
2022-11-13T00:07:58.778Z,59.52
2022-11-13T00:10:44.259Z,59.48
2022-11-13T00:13:30.655Z,59.33
2022-11-13T00:16:20.592Z,59.40
2022-11-13T00:19:06.358Z,59.33
2022-11-13T00:21:51.768Z,58.95
2022-11-13T00:24:37.252Z,58.84
2022-11-13T00:27:22.811Z,59.03
2022-11-13T00:30:09.074Z,59.06
2022-11-13T00:32:54.668Z,59.31
2022-11-13T00:35:40.566Z,59.32
2022-11-13T00:38:26.291Z,58.97
2022-11-13T00:41:12.691Z,59.26
2022-11-13T00:43:58.164Z,59.30
2022-11-13T00:46:43.685Z,59.89
2022-11-13T00:49:29.166Z,59.76
2022-11-13T00:52:14.763Z,59.80
2022-11-13T00:55:00.795Z,59.77
2022-11-13T00:57:46.301Z,60.14
2022-11-13T01:00:32.698Z,60.25
2022-11-13T01:03:18.372Z,60.64
2022-11-13T01:06:13.683Z,61.08
2022-11-13T01:08:59.986Z,61.17
2022-11-13T01:11:45.739Z,61.60
2022-11-13T01:14:31.047Z,62.10
2022-11-13T01:17:16.528Z,62.04
2022-11-13T01:20:02.004Z,62.21
2022-11-13T01:22:47.540Z,61.77
2022-11-13T01:25:33.425Z,61.59
2022-11-13T01:28:19.082Z,61.45
2022-11-13T01:31:11.311Z,61.28
2022-11-13T01:33:57.562Z,60.83
2022-11-13T01:36:42.896Z,60.87
2022-11-13T01:39:28.326Z,60.83
2022-11-13T01:42:13.723Z,60.93
2022-11-13T01:45:02.226Z,60.81
2022-11-13T01:47:47.655Z,60.51
2022-11-13T01:50:33.107Z,60.63
2022-11-13T01:53:19.454Z,60.74
2022-11-13T01:56:05.553Z,60.47
2022-11-13T01:59:07.326Z,60.81
2022-11-13T02:01:55.594Z,60.85
2022-11-13T02:04:41.382Z,60.72
2022-11-13T02:07:27.025Z,60.83
2022-11-13T02:10:12.896Z,60.27
2022-11-13T02:12:58.768Z,60.64
2022-11-13T02:15:44.926Z,60.87
2022-11-13T02:18:31.949Z,60.99
2022-11-13T02:22:08.312Z,60.74
2022-11-13T02:24:55.121Z,60.77
2022-11-13T02:27:46.198Z,60.31
2022-11-13T02:30:35.199Z,60.48
2022-11-13T02:33:31.450Z,60.63
2022-11-13T02:36:20.534Z,60.50
2022-11-13T02:39:10.584Z,60.23
2022-11-13T02:41:56.002Z,60.14
2022-11-13T02:44:41.470Z,60.02
2022-11-13T02:47:27.392Z,60.29
2022-11-13T02:50:13.323Z,60.29
2022-11-13T02:52:59.419Z,59.93
2022-11-13T02:55:45.168Z,59.52
2022-11-13T02:58:31.128Z,59.78
2022-11-13T03:01:17.115Z,59.22
2022-11-13T03:04:03.614Z,59.17
2022-11-13T03:06:49.332Z,59.45
2022-11-13T03:09:35.313Z,58.98
2022-11-13T03:12:20.681Z,58.82
2022-11-13T03:15:08.041Z,59.39
2022-11-13T03:17:54.040Z,59.21
2022-11-13T03:20:43.140Z,59.34
2022-11-13T03:23:28.776Z,59.13
2022-11-13T03:26:17.049Z,59.02
2022-11-13T03:29:02.645Z,58.56
2022-11-13T03:31:48.315Z,58.55
2022-11-13T03:34:34.200Z,58.37
2022-11-13T03:37:19.759Z,58.46
2022-11-13T03:40:06.176Z,58.41
2022-11-13T03:42:51.849Z,58.35
2022-11-13T03:45:37.227Z,58.76
2022-11-13T03:48:22.872Z,58.67
2022-11-13T03:51:08.551Z,59.36
2022-11-13T03:53:54.992Z,59.62
2022-11-13T03:56:40.796Z,59.52
2022-11-13T03:59:26.113Z,59.81
2022-11-13T04:02:11.430Z,60.21
2022-11-13T04:04:56.862Z,60.28
2022-11-13T04:07:42.461Z,60.55
2022-11-13T04:10:28.396Z,60.71
2022-11-13T04:13:14.136Z,60.66
2022-11-13T04:15:59.674Z,60.81
2022-11-13T04:18:45.097Z,60.70
2022-11-13T04:21:30.671Z,60.58
2022-11-13T04:24:16.053Z,60.66
2022-11-13T04:27:01.445Z,60.58
2022-11-13T04:29:46.818Z,60.27
2022-11-13T04:32:33.015Z,60.32
2022-11-13T04:35:18.590Z,60.21
2022-11-13T04:38:04.324Z,60.16
2022-11-13T04:41:11.127Z,60.20
2022-11-13T04:43:56.595Z,60.29
2022-11-13T04:46:42.237Z,60.21
2022-11-13T04:49:27.560Z,60.27
2022-11-13T04:52:13.212Z,60.15
2022-11-13T04:54:58.878Z,60.18
2022-11-13T04:57:43.995Z,60.35
2022-11-13T05:00:29.524Z,60.28
2022-11-13T05:03:14.859Z,60.69
2022-11-13T05:06:09.258Z,60.81
2022-11-13T05:08:54.900Z,60.72
2022-11-13T05:11:40.661Z,60.71
2022-11-13T05:14:26.164Z,60.87
2022-11-13T05:17:13.078Z,60.67
2022-11-13T05:19:58.772Z,60.56
2022-11-13T05:22:44.200Z,60.41
2022-11-13T05:25:30.959Z,60.43
2022-11-13T05:28:16.893Z,60.67
2022-11-13T05:31:12.043Z,60.56
2022-11-13T05:34:01.290Z,60.40
2022-11-13T05:36:51.247Z,60.49
2022-11-13T05:39:36.652Z,60.60
2022-11-13T05:42:22.145Z,60.14
2022-11-13T05:45:08.390Z,60.57
2022-11-13T05:47:54.229Z,60.28
2022-11-13T05:50:39.557Z,60.45
2022-11-13T05:53:24.981Z,60.63
2022-11-13T05:56:19.473Z,60.78
2022-11-13T05:59:06.274Z,60.90
2022-11-13T06:01:51.984Z,60.92
2022-11-13T06:04:37.446Z,60.48
2022-11-13T06:07:23.010Z,60.86
2022-11-13T06:10:09.432Z,60.38
2022-11-13T06:12:55.570Z,60.50
2022-11-13T06:15:41.003Z,60.49
2022-11-13T06:18:27.019Z,60.81
2022-11-13T06:21:23.318Z,60.92
2022-11-13T06:24:12.095Z,60.80
2022-11-13T06:26:57.484Z,60.95
2022-11-13T06:29:43.136Z,61.05
2022-11-13T06:32:28.870Z,61.34
2022-11-13T06:35:14.421Z,60.98
2022-11-13T06:37:59.816Z,60.74
2022-11-13T06:40:45.263Z,61.01
2022-11-13T06:43:31.438Z,60.55
2022-11-13T06:46:23.559Z,60.63
2022-11-13T06:49:09.114Z,60.49
2022-11-13T06:51:54.588Z,60.41
2022-11-13T06:54:40.007Z,60.29
2022-11-13T06:57:25.520Z,60.04
2022-11-13T07:00:11.899Z,60.12
2022-11-13T07:02:57.567Z,60.01
2022-11-13T07:05:43.441Z,60.04
2022-11-13T07:08:29.427Z,59.77
2022-11-13T07:11:19.103Z,59.71
2022-11-13T07:14:05.132Z,59.71
2022-11-13T07:17:08.517Z,59.42
2022-11-13T07:19:55.521Z,59.34
2022-11-13T07:22:41.139Z,59.33
2022-11-13T07:25:27.829Z,59.23
2022-11-13T07:28:13.695Z,59.27
2022-11-13T07:31:00.115Z,58.95
2022-11-13T07:33:49.336Z,58.81
2022-11-13T07:36:34.753Z,58.85
2022-11-13T07:39:20.308Z,58.48
2022-11-13T07:42:05.983Z,58.08
2022-11-13T07:44:55.458Z,58.17
2022-11-13T07:47:41.280Z,57.86
2022-11-13T07:50:31.396Z,57.55
2022-11-13T07:53:18.334Z,57.52
2022-11-13T07:56:05.301Z,57.33
2022-11-13T07:58:50.861Z,56.67
2022-11-13T08:01:36.867Z,56.52
2022-11-13T08:04:22.267Z,56.36
2022-11-13T08:07:08.548Z,56.22
2022-11-13T08:09:54.441Z,55.96
2022-11-13T08:12:39.941Z,55.68
2022-11-13T08:15:25.454Z,55.84
2022-11-13T08:18:11.050Z,55.59
2022-11-13T08:20:56.537Z,55.17
2022-11-13T08:23:42.941Z,54.86
2022-11-13T08:26:29.163Z,55.06
2022-11-13T08:29:15.137Z,54.88
2022-11-13T08:32:00.565Z,54.66
2022-11-13T08:34:46.396Z,54.44
2022-11-13T08:37:33.788Z,54.29
2022-11-13T08:40:19.868Z,54.08
2022-11-13T08:43:05.465Z,53.95
2022-11-13T08:45:51.228Z,54.24
2022-11-13T08:48:37.780Z,53.67
2022-11-13T08:51:23.696Z,53.58
2022-11-13T08:54:09.185Z,53.35
2022-11-13T08:56:57.881Z,53.17
2022-11-13T08:59:45.213Z,52.94
2022-11-13T09:02:30.625Z,53.48
2022-11-13T09:05:16.349Z,53.44
2022-11-13T09:08:02.578Z,52.92
2022-11-13T09:10:48.323Z,53.00
2022-11-13T09:13:38.599Z,52.76
2022-11-13T09:16:27.171Z,52.81
2022-11-13T09:19:12.701Z,52.42
2022-11-13T09:21:58.658Z,52.07
2022-11-13T09:24:44.595Z,52.15
2022-11-13T09:27:30.244Z,51.74
2022-11-13T09:30:16.699Z,51.25
2022-11-13T09:33:02.512Z,51.10
2022-11-13T09:35:48.253Z,50.96
2022-11-13T09:38:33.773Z,51.03
2022-11-13T09:41:28.621Z,50.66
2022-11-13T09:44:42.099Z,50.63
2022-11-13T09:47:55.172Z,50.37
2022-11-13T09:50:41.180Z,51.05
2022-11-13T09:53:33.911Z,50.68
2022-11-13T09:56:27.938Z,50.91
2022-11-13T09:59:56.419Z,50.77
2022-11-13T10:03:46.319Z,50.41
2022-11-13T10:06:44.623Z,50.66
2022-11-13T10:09:55.128Z,50.97
2022-11-13T10:12:40.650Z,50.87
2022-11-13T10:15:27.610Z,50.68
2022-11-13T10:18:35.641Z,50.44
2022-11-13T10:21:47.221Z,50.54
2022-11-13T10:24:41.971Z,50.53
2022-11-13T10:27:27.530Z,51.10
2022-11-13T10:30:19.047Z,51.16
2022-11-13T10:33:08.748Z,51.04
2022-11-13T10:36:34.622Z,51.17
2022-11-13T10:39:20.549Z,50.79
2022-11-13T10:42:21.137Z,50.36
2022-11-13T10:45:17.373Z,49.67
2022-11-13T10:48:04.993Z,49.86
2022-11-13T10:51:04.484Z,48.82
2022-11-13T10:53:50.484Z,47.26
2022-11-13T10:56:36.800Z,44.90
2022-11-13T10:59:22.700Z,42.86
2022-11-13T11:02:22.475Z,40.95
2022-11-13T11:05:23.117Z,39.21
2022-11-13T11:08:11.183Z,36.85
2022-11-13T11:11:33.869Z,35.05
2022-11-13T11:14:41.632Z,33.21
2022-11-13T11:17:44.443Z,32.93
2022-11-13T11:20:41.354Z,32.70
2022-11-13T11:23:34.724Z,32.01
2022-11-13T11:26:42.766Z,30.82
2022-11-13T11:29:49.344Z,29.73
2022-11-13T11:32:42.952Z,29.25
2022-11-13T11:35:57.275Z,27.94
2022-11-13T11:39:06.298Z,27.93
2022-11-13T11:42:36.885Z,27.65
2022-11-13T11:45:34.054Z,28.83
2022-11-13T11:48:34.889Z,28.38
2022-11-13T11:51:52.173Z,28.83
2022-11-13T11:55:10.322Z,28.90
2022-11-13T11:58:28.166Z,28.42
2022-11-13T12:02:30.990Z,27.54
2022-11-13T12:05:26.071Z,26.79
2022-11-13T12:08:39.346Z,26.54
2022-11-13T12:11:35.498Z,27.28
2022-11-13T12:15:08.648Z,27.28
2022-11-13T12:18:36.182Z,26.46
2022-11-13T12:21:27.031Z,26.06
2022-11-13T12:24:27.608Z,26.69
2022-11-13T12:27:20.496Z,26.41
2022-11-13T12:30:18.125Z,26.05
2022-11-13T12:33:06.890Z,26.44
2022-11-13T12:35:53.792Z,26.79
2022-11-13T12:38:57.153Z,26.48
2022-11-13T12:42:08.967Z,26.08
2022-11-13T12:45:20.315Z,25.24
2022-11-13T12:48:36.291Z,25.63
2022-11-13T12:51:21.961Z,25.99
2022-11-13T12:54:10.860Z,25.59
2022-11-13T12:57:14.386Z,25.44
2022-11-13T13:00:25.655Z,26.99
2022-11-13T13:03:44.890Z,25.76
2022-11-13T13:07:06.707Z,25.49
2022-11-13T13:10:23.978Z,24.88
2022-11-13T13:13:42.167Z,24.56
2022-11-13T13:16:29.872Z,25.08
2022-11-13T13:19:30.292Z,24.67
2022-11-13T13:22:34.470Z,24.56
2022-11-13T13:25:34.550Z,24.97
2022-11-13T13:28:24.597Z,24.49
2022-11-13T13:31:13.301Z,24.83
2022-11-13T13:34:36.330Z,25.56
2022-11-13T13:38:01.356Z,25.54
2022-11-13T13:41:06.699Z,26.17
2022-11-13T13:44:02.852Z,25.77
2022-11-13T13:46:49.865Z,26.43
2022-11-13T13:49:36.563Z,26.97
2022-11-13T13:52:32.135Z,27.58
2022-11-13T13:55:37.641Z,28.48
2022-11-13T13:58:34.489Z,28.65
2022-11-13T14:01:33.918Z,28.73
2022-11-13T14:04:22.911Z,28.52
2022-11-13T14:07:30.046Z,30.93
2022-11-13T14:10:20.745Z,33.32
2022-11-13T14:13:06.210Z,35.70
2022-11-13T14:16:05.201Z,37.95
2022-11-13T14:18:50.708Z,39.46
2022-11-13T14:21:36.355Z,40.96
2022-11-13T14:24:30.168Z,41.87
2022-11-13T14:27:23.811Z,42.36
2022-11-13T14:30:27.795Z,43.41
2022-11-13T14:33:36.017Z,44.48
2022-11-13T14:36:34.217Z,45.10
2022-11-13T14:39:32.491Z,46.30
2022-11-13T14:42:28.545Z,46.86
2022-11-13T14:45:17.281Z,47.50
2022-11-13T14:48:53.466Z,48.13
2022-11-13T14:51:40.321Z,48.44
2022-11-13T14:55:07.964Z,48.45
2022-11-13T14:57:50.365Z,48.85
2022-11-13T15:00:38.412Z,49.23
2022-11-13T15:03:25.258Z,49.73
2022-11-13T15:06:24.589Z,50.28
2022-11-13T15:09:16.813Z,50.50
2022-11-13T15:12:02.345Z,50.81
2022-11-13T15:14:47.890Z,51.25
2022-11-13T15:17:33.453Z,51.64
2022-11-13T15:20:25.652Z,51.87
2022-11-13T15:23:16.099Z,52.34
2022-11-13T15:26:01.564Z,52.71
2022-11-13T15:28:47.990Z,53.13
2022-11-13T15:31:37.619Z,53.27
2022-11-13T15:34:24.000Z,53.70
2022-11-13T15:37:15.457Z,53.56
2022-11-13T15:40:01.580Z,54.07
2022-11-13T15:42:47.543Z,54.55
2022-11-13T15:45:33.293Z,54.12
2022-11-13T15:48:18.786Z,54.10
2022-11-13T15:51:04.821Z,54.58
2022-11-13T15:54:13.008Z,54.88
2022-11-13T15:56:58.584Z,54.91
2022-11-13T15:59:43.827Z,55.17
2022-11-13T16:02:29.463Z,55.13
2022-11-13T16:05:15.069Z,55.84
2022-11-13T16:08:00.616Z,55.87
2022-11-13T16:10:46.237Z,56.13
2022-11-13T16:13:32.117Z,56.34
2022-11-13T16:16:23.746Z,56.69
2022-11-13T16:19:16.188Z,56.89
2022-11-13T16:22:01.942Z,57.43
2022-11-13T16:24:47.551Z,57.45
2022-11-13T16:27:36.085Z,57.62
2022-11-13T16:30:27.891Z,57.63
2022-11-13T16:33:13.455Z,57.65
2022-11-13T16:35:58.983Z,57.88
2022-11-13T16:38:44.736Z,57.97
2022-11-13T16:41:32.136Z,58.22
2022-11-13T16:44:17.787Z,58.55
2022-11-13T16:47:03.402Z,58.30
2022-11-13T16:49:49.851Z,58.77
2022-11-13T16:52:35.457Z,58.71
2022-11-13T16:55:21.505Z,59.06
2022-11-13T16:58:07.124Z,59.09
2022-11-13T17:00:57.399Z,59.30
2022-11-13T17:03:45.811Z,59.46
2022-11-13T17:06:35.638Z,59.49
2022-11-13T17:09:21.182Z,59.46
2022-11-13T17:12:06.783Z,59.80
2022-11-13T17:14:52.305Z,59.94
2022-11-13T17:17:37.659Z,60.07
2022-11-13T17:20:23.267Z,60.29
2022-11-13T17:23:16.014Z,60.45
2022-11-13T17:26:04.148Z,60.70
2022-11-13T17:28:49.641Z,60.61
2022-11-13T17:31:35.513Z,60.67
2022-11-13T17:34:20.972Z,60.94
2022-11-13T17:37:06.557Z,60.94
2022-11-13T17:39:52.023Z,61.07
2022-11-13T17:42:37.362Z,61.21
2022-11-13T17:45:23.484Z,61.40
2022-11-13T17:48:09.227Z,61.17
2022-11-13T17:50:59.242Z,61.49
2022-11-13T17:53:44.847Z,61.47
2022-11-13T17:56:30.565Z,61.41
2022-11-13T17:59:16.346Z,61.50
2022-11-13T18:02:02.664Z,61.68
2022-11-13T18:04:49.089Z,61.77
2022-11-13T18:07:34.441Z,61.59
2022-11-13T18:10:20.537Z,61.86
2022-11-13T18:13:06.707Z,62.22
2022-11-13T18:15:52.710Z,62.22
2022-11-13T18:18:38.968Z,62.08
2022-11-13T18:21:31.404Z,62.28
2022-11-13T18:24:19.385Z,62.34
2022-11-13T18:27:08.252Z,62.42
2022-11-13T18:29:54.328Z,62.67
2022-11-13T18:32:39.892Z,62.59
2022-11-13T18:35:25.748Z,62.64
2022-11-13T18:38:11.301Z,62.89
2022-11-13T18:41:13.552Z,62.64
2022-11-13T18:43:59.152Z,63.07
2022-11-13T18:46:44.693Z,62.94
2022-11-13T18:49:30.051Z,62.98
2022-11-13T18:52:15.911Z,63.27
2022-11-13T18:55:02.052Z,63.59
2022-11-13T18:57:48.352Z,63.45
2022-11-13T19:00:33.772Z,62.78
2022-11-13T19:03:19.141Z,62.69
2022-11-13T19:06:10.209Z,62.91
2022-11-13T19:09:02.401Z,62.93
2022-11-13T19:11:48.316Z,63.02
2022-11-13T19:14:34.063Z,63.20
2022-11-13T19:17:19.338Z,63.31
2022-11-13T19:20:05.846Z,63.37
2022-11-13T19:22:51.373Z,63.43
2022-11-13T19:25:36.856Z,62.92
2022-11-13T19:28:22.937Z,63.32
2022-11-13T19:31:15.038Z,63.52
2022-11-13T19:34:04.685Z,63.16
2022-11-13T19:36:51.869Z,62.83
2022-11-13T19:39:38.062Z,62.70
2022-11-13T19:42:24.071Z,63.27
2022-11-13T19:45:10.188Z,63.28
2022-11-13T19:47:55.897Z,63.52
2022-11-13T19:50:43.767Z,64.21
2022-11-13T19:53:31.436Z,64.09
2022-11-13T19:56:20.786Z,64.21
2022-11-13T19:59:11.464Z,64.12
2022-11-13T20:01:56.990Z,64.01
2022-11-13T20:04:42.923Z,63.75
2022-11-13T20:07:29.146Z,63.76
2022-11-13T20:10:15.642Z,63.37
2022-11-13T20:13:01.504Z,63.35
2022-11-13T20:15:54.788Z,63.56
2022-11-13T20:18:42.478Z,64.08
2022-11-13T20:21:33.105Z,64.14
2022-11-13T20:24:19.185Z,64.01
2022-11-13T20:27:05.005Z,63.94
2022-11-13T20:29:50.630Z,63.87
2022-11-13T20:32:40.179Z,63.71
2022-11-13T20:35:26.174Z,63.76
2022-11-13T20:38:11.742Z,63.83
2022-11-13T20:40:57.910Z,63.82
2022-11-13T20:43:43.723Z,63.86
2022-11-13T20:46:30.768Z,63.57
2022-11-13T20:49:16.647Z,63.25
2022-11-13T20:52:04.608Z,63.02
2022-11-13T20:54:50.127Z,63.38
2022-11-13T20:57:40.744Z,63.29
2022-11-13T21:00:27.221Z,63.36
2022-11-13T21:03:13.668Z,63.21
2022-11-13T21:05:59.656Z,62.96
2022-11-13T21:08:46.176Z,62.85
2022-11-13T21:11:32.339Z,62.57
2022-11-13T21:14:17.764Z,62.61
2022-11-13T21:17:03.402Z,63.20
2022-11-13T21:19:49.413Z,63.22
2022-11-13T21:22:37.129Z,63.12
2022-11-13T21:25:23.351Z,62.99
2022-11-13T21:28:09.143Z,62.87
2022-11-13T21:30:54.941Z,63.07
2022-11-13T21:33:43.334Z,62.83
2022-11-13T21:36:29.907Z,62.56
2022-11-13T21:39:16.037Z,62.78
2022-11-13T21:42:01.938Z,62.97
2022-11-13T21:44:47.566Z,62.87
2022-11-13T21:47:33.851Z,62.69
2022-11-13T21:50:19.676Z,62.62
2022-11-13T21:53:05.328Z,62.52
2022-11-13T21:55:51.805Z,62.37
2022-11-13T21:58:40.409Z,62.02
2022-11-13T22:01:33.783Z,61.55
2022-11-13T22:04:23.416Z,61.52
2022-11-13T22:07:09.176Z,61.18
2022-11-13T22:09:55.344Z,60.94
2022-11-13T22:12:40.894Z,60.96
2022-11-13T22:15:26.307Z,60.85
2022-11-13T22:18:12.544Z,60.74
2022-11-13T22:21:08.024Z,60.58
2022-11-13T22:23:53.968Z,60.73
2022-11-13T22:26:43.349Z,60.49
2022-11-13T22:29:29.448Z,60.63
2022-11-13T22:32:15.567Z,60.76
2022-11-13T22:35:01.824Z,60.72
2022-11-13T22:37:47.911Z,60.61
2022-11-13T22:40:33.575Z,60.62
2022-11-13T22:43:19.150Z,60.49
2022-11-13T22:46:10.337Z,60.59
2022-11-13T22:48:58.219Z,60.78
2022-11-13T22:51:43.880Z,60.83
2022-11-13T22:54:29.546Z,60.69
2022-11-13T22:57:15.328Z,60.59
2022-11-13T23:00:01.089Z,60.80
2022-11-13T23:02:47.522Z,60.72
2022-11-13T23:05:36.199Z,60.78
2022-11-13T23:08:22.099Z,61.00
2022-11-13T23:11:15.594Z,61.06
2022-11-13T23:14:04.335Z,60.88
2022-11-13T23:16:50.097Z,60.90
2022-11-13T23:19:35.630Z,61.16
2022-11-13T23:22:21.483Z,61.29
2022-11-13T23:25:07.968Z,61.13
2022-11-13T23:27:53.450Z,61.40
2022-11-13T23:30:38.979Z,61.19
2022-11-13T23:33:24.869Z,61.70
2022-11-13T23:36:13.277Z,61.50
2022-11-13T23:38:59.065Z,61.46
2022-11-13T23:41:44.411Z,61.42
2022-11-13T23:44:30.226Z,61.34
2022-11-13T23:47:16.106Z,61.46
2022-11-13T23:50:01.642Z,61.66
2022-11-13T23:52:48.594Z,61.49
2022-11-13T23:55:35.015Z,61.32
2022-11-13T23:58:20.901Z,61.44
